• Join FlightAware (Why Join?)
  • Login
  • US Flag 
05:15AM EDT


 

Airport Tracker/Info


-or-


 

Live Flight TrackerFlight Track Log ✈ SWA1855 ✈ 04-Aug-2013 ✈ KBUR - KOAK

Flight Track Log - Related Links

Times and Time Zones

All times are in EDT time to prevent confusion due to time zone crossing. See the SWA1855 flight status page for this flight to view local times or setup timezone preferences in your user account.

Time Position Orientation Groundspeed Altitude Reporting Facility
EDT Latitude Longitude Course Direction KTS MPH feet Rate Location/Type
02:05PM 34.1325 -118.4264 338° Northwest 236 272 5,600  Level Los Angeles Center
02:06PM 34.1908 -118.4547 338° Northwest 249 287 8,100 2,400 Climbing Los Angeles Center
02:07PM 34.2664 -118.4947 336° Northwest 303 349 10,600 2,520 Climbing Los Angeles Center
02:08PM 34.3408 -118.5472 330° Northwest 311 358 13,400 1,620 Climbing Los Angeles Center
02:09PM 34.4200 -118.5992 332° Northwest 322 371 14,000 1,740 Climbing Los Angeles Center
02:10PM 34.5000 -118.6539 331° Northwest 326 375 17,100 1,740 Climbing Los Angeles Center
02:11PM 34.6078 -118.7267 331° Northwest 393 452 17,600 1,200 Climbing Los Angeles Center
02:12PM 34.7086 -118.7969 330° Northwest 416 479 19,700 1,800 Climbing Los Angeles Center
02:13PM 34.8111 -118.8706 329° Northwest 424 488 21,400 1,680 Climbing Los Angeles Center
02:14PM 34.9225 -118.9753 322° Northwest 446 513 23,200 1,740 Climbing Los Angeles Center
02:15PM 35.0200 -119.0739 320° Northwest 455 524 25,000 1,500 Climbing Los Angeles Center
02:16PM 35.1219 -119.1725 322° Northwest 465 535 26,400 1,560 Climbing Los Angeles Center
02:17PM 35.2261 -119.2725 322° Northwest 475 547 28,300 1,620 Climbing Los Angeles Center
02:18PM 35.3064 -119.3528 321° Northwest 469 540 29,800 1,500 Climbing Los Angeles Center
02:19PM 35.4253 -119.4708 321° Northwest 463 533 31,500 1,620 Climbing Los Angeles Center
02:20PM 35.5447 -119.5892 321° Northwest 462 532 33,200 1,320 Climbing Los Angeles Center
02:21PM 35.6419 -119.6853 321° Northwest 460 529 34,300 960 Climbing Oakland Center
02:22PM 35.7414 -119.7856 321° Northwest 465 535 35,200 780 Climbing Oakland Center
02:23PM 35.8406 -119.8847 321° Northwest 465 535 36,000 360 Climbing Oakland Center
02:24PM 35.9583 -120.0053 320° Northwest 462 532 36,000  Level Oakland Center
02:25PM 36.0567 -120.1036 321° Northwest 458 527 36,000  Level Oakland Center
02:26PM 36.1567 -120.2050 321° Northwest 465 535 36,000  Level Oakland Center
02:27PM 36.2544 -120.3067 320° Northwest 463 533 36,000  Level Oakland Center
02:28PM 36.3544 -120.4081 321° Northwest 464 534 36,000 -1,080 Level Oakland Center
02:29PM 36.4536 -120.5094 321° Northwest 465 535 33,800 -3,000 Descending Oakland Center
02:30PM 36.5736 -120.6328 320° Northwest 469 540 29,800 -3,480 Descending Oakland Center
02:31PM 36.6739 -120.7344 321° Northwest 468 539 26,700 -2,760 Descending Oakland Center
02:33PM 36.7672 -120.8394 318° Northwest 456 525 24,200 -2,400 Descending Oakland Center
02:34PM 36.8547 -120.9408 317° Northwest 436 502 21,800 -2,340 Descending Oakland Center
02:35PM 36.9411 -121.0375 318° Northwest 421 484 19,400 -2,280 Descending Oakland Center
02:36PM 37.0219 -121.1336 317° Northwest 406 467 17,100 -2,400 Descending Oakland Center
02:37PM 37.1014 -121.2244 318° Northwest 390 449 14,600 -2,640 Descending Oakland Center
02:38PM 37.1933 -121.3325 317° Northwest 378 435 11,800 -2,100 Descending Oakland Center
02:39PM 37.2681 -121.4175 318° Northwest 364 419 10,300 -1,020 Descending Oakland Center
02:40PM 37.3317 -121.4897 318° Northwest 311 358 9,800 -780 Descending Oakland Center
02:41PM 37.3875 -121.5567 316° Northwest 299 344 8,800 -960 Descending Oakland Center
02:42PM 37.4483 -121.6272 317° Northwest 299 344 7,900 -1,020 Descending Oakland Center
02:43PM 37.5211 -121.7114 317° Northwest 296 341 6,700 -1,080 Descending Oakland Center
02:44PM 37.5397 -121.8044 284° West 292 336 5,700 -900 Descending Oakland Center
02:45PM 37.5458 -121.9019 275° West 281 323 4,900 -660 Descending Oakland Center
02:46PM 37.5483 -121.9881 272° West 255 293 4,400 -780 Descending Oakland Center
02:47PM 37.5894 -122.0472 311° West 229 264 3,400 -1,020 Descending Oakland Center
02:48PM 37.6261 -122.1036 309° West 219 252 2,300 -960 Descending Oakland Center
02:49PM 37.6533 -122.1428 311° West 178 205 1,500 -840 Descending Oakland Center
02:50PM 37.6833 -122.1886 310° West 152 175 600 8,940 Descending Oakland Center
02:51PM 37.7075 -122.2244 310° West 142 163 20,000 18,720 Climbing Oakland Center
02:53PM 37.7167 -122.2167 270° West  Level FlightAware Approximate
03:00PM 37.7213 -122.2207 270° West  Level Estimated